Ornslund, Denmark
Current Conditions -  °F | °C
As of 3:20 AM on Tuesday 23 Dec 2014 (Local Time) from EKAH Reporting Station
Few Clouds Few Clouds  
Wind Chill: 38°   Ceiling: Unl
Heat Index: 45°   Visibility: 6mi
Dew Point: 39°   Wind: 14mph
Humidity: 81%   Direction: 260°W
Pressure: 29.53"   Gusts: NA
Location:  55.7°N, 10.6°E
Report Text: EKAH 230220Z AUTO 26012KT 9999NDV FEW014/// 07/04 Q1000
Loading
Personal Weather Stations






























Interactive Weather Map New forecast layout! Learn more

10-Day Weather Forecast

Advertisements
Track Severe Weather on mobile